sensor_id;sensor_type;location;lat;lon;timestamp;temperature;humidity
11647;DHT22;5880;52.342;9.662;2022-12-18T00:01:04;-1.20;63.80
11647;DHT22;5880;52.342;9.662;2022-12-18T00:03:35;-1.20;63.80
11647;DHT22;5880;52.342;9.662;2022-12-18T00:06:01;-1.20;63.80
11647;DHT22;5880;52.342;9.662;2022-12-18T00:08:28;-1.20;63.90
11647;DHT22;5880;52.342;9.662;2022-12-18T00:10:54;-1.20;63.90
11647;DHT22;5880;52.342;9.662;2022-12-18T00:13:20;-1.20;63.90
11647;DHT22;5880;52.342;9.662;2022-12-18T00:15:46;-1.20;63.90
11647;DHT22;5880;52.342;9.662;2022-12-18T00:18:12;-1.20;63.90
11647;DHT22;5880;52.342;9.662;2022-12-18T00:20:38;-1.20;63.90
11647;DHT22;5880;52.342;9.662;2022-12-18T00:23:06;-1.20;63.80
11647;DHT22;5880;52.342;9.662;2022-12-18T00:25:36;-1.20;63.80
11647;DHT22;5880;52.342;9.662;2022-12-18T00:28:05;-1.20;63.80
11647;DHT22;5880;52.342;9.662;2022-12-18T00:30:30;-1.20;63.80
11647;DHT22;5880;52.342;9.662;2022-12-18T00:32:57;-1.20;63.70
11647;DHT22;5880;52.342;9.662;2022-12-18T00:35:23;-1.20;63.70
11647;DHT22;5880;52.342;9.662;2022-12-18T00:37:48;-1.20;63.60
11647;DHT22;5880;52.342;9.662;2022-12-18T00:40:14;-1.20;63.60
11647;DHT22;5880;52.342;9.662;2022-12-18T00:42:40;-1.30;63.60
11647;DHT22;5880;52.342;9.662;2022-12-18T00:45:23;-1.30;63.60
11647;DHT22;5880;52.342;9.662;2022-12-18T00:47:53;-1.30;63.60
11647;DHT22;5880;52.342;9.662;2022-12-18T00:50:20;-1.30;63.60
11647;DHT22;5880;52.342;9.662;2022-12-18T00:52:47;-1.30;63.60
11647;DHT22;5880;52.342;9.662;2022-12-18T00:55:13;-1.30;63.70
11647;DHT22;5880;52.342;9.662;2022-12-18T00:57:39;-1.30;63.70
11647;DHT22;5880;52.342;9.662;2022-12-18T01:00:07;-1.30;63.70
11647;DHT22;5880;52.342;9.662;2022-12-18T01:02:39;-1.30;63.70
11647;DHT22;5880;52.342;9.662;2022-12-18T01:05:05;-1.30;63.70
11647;DHT22;5880;52.342;9.662;2022-12-18T01:07:31;-1.40;63.50
11647;DHT22;5880;52.342;9.662;2022-12-18T01:09:57;-1.40;63.50
11647;DHT22;5880;52.342;9.662;2022-12-18T01:12:23;-1.40;63.60
11647;DHT22;5880;52.342;9.662;2022-12-18T01:14:48;-1.40;63.50
11647;DHT22;5880;52.342;9.662;2022-12-18T01:17:14;-1.40;63.60
11647;DHT22;5880;52.342;9.662;2022-12-18T01:19:40;-1.40;63.60
11647;DHT22;5880;52.342;9.662;2022-12-18T01:22:06;-1.40;63.50
11647;DHT22;5880;52.342;9.662;2022-12-18T01:24:31;-1.50;63.60
11647;DHT22;5880;52.342;9.662;2022-12-18T01:26:57;-1.40;63.60
11647;DHT22;5880;52.342;9.662;2022-12-18T01:29:23;-1.40;63.60
11647;DHT22;5880;52.342;9.662;2022-12-18T01:31:49;-1.50;63.60
11647;DHT22;5880;52.342;9.662;2022-12-18T01:34:14;-1.50;63.60
11647;DHT22;5880;52.342;9.662;2022-12-18T01:36:40;-1.50;63.70
11647;DHT22;5880;52.342;9.662;2022-12-18T01:39:15;-1.50;63.80
11647;DHT22;5880;52.342;9.662;2022-12-18T01:41:41;-1.50;63.80
11647;DHT22;5880;52.342;9.662;2022-12-18T01:45:04;-1.50;63.80
11647;DHT22;5880;52.342;9.662;2022-12-18T01:47:58;-1.50;63.70
11647;DHT22;5880;52.342;9.662;2022-12-18T01:50:31;-1.50;63.80
11647;DHT22;5880;52.342;9.662;2022-12-18T01:53:17;-1.70;63.60
11647;DHT22;5880;52.342;9.662;2022-12-18T01:55:50;-1.50;63.70
11647;DHT22;5880;52.342;9.662;2022-12-18T01:58:20;-1.50;63.70
11647;DHT22;5880;52.342;9.662;2022-12-18T02:00:54;-1.50;63.70
11647;DHT22;5880;52.342;9.662;2022-12-18T02:03:20;-1.50;63.70
11647;DHT22;5880;52.342;9.662;2022-12-18T02:06:04;-1.50;63.70
11647;DHT22;5880;52.342;9.662;2022-12-18T02:09:17;-1.50;63.70
11647;DHT22;5880;52.342;9.662;2022-12-18T02:17:13;-1.50;63.70
11647;DHT22;5880;52.342;9.662;2022-12-18T02:20:01;-1.50;63.70
11647;DHT22;5880;52.342;9.662;2022-12-18T02:23:04;-1.50;63.50
11647;DHT22;5880;52.342;9.662;2022-12-18T02:28:21;-1.60;63.40
11647;DHT22;5880;52.342;9.662;2022-12-18T02:30:53;-1.50;63.50
11647;DHT22;5880;52.342;9.662;2022-12-18T02:33:25;-1.60;63.40
11647;DHT22;5880;52.342;9.662;2022-12-18T02:35:54;-1.60;63.40
11647;DHT22;5880;52.342;9.662;2022-12-18T02:38:23;-1.60;63.50
11647;DHT22;5880;52.342;9.662;2022-12-18T02:40:51;-1.70;63.40
11647;DHT22;5880;52.342;9.662;2022-12-18T02:43:19;-1.70;63.50
11647;DHT22;5880;52.342;9.662;2022-12-18T02:45:54;-1.70;63.50
11647;DHT22;5880;52.342;9.662;2022-12-18T02:48:33;-1.70;63.40
11647;DHT22;5880;52.342;9.662;2022-12-18T02:51:21;-1.70;63.50
11647;DHT22;5880;52.342;9.662;2022-12-18T02:54:10;-1.70;63.40
11647;DHT22;5880;52.342;9.662;2022-12-18T02:56:53;-1.70;63.40
11647;DHT22;5880;52.342;9.662;2022-12-18T02:59:33;-1.70;63.50
11647;DHT22;5880;52.342;9.662;2022-12-18T03:02:28;-1.80;63.40
11647;DHT22;5880;52.342;9.662;2022-12-18T03:05:21;-1.80;63.40
11647;DHT22;5880;52.342;9.662;2022-12-18T03:07:57;-1.80;63.40
11647;DHT22;5880;52.342;9.662;2022-12-18T03:10:30;-1.80;63.50
11647;DHT22;5880;52.342;9.662;2022-12-18T03:13:26;-1.80;63.60
11647;DHT22;5880;52.342;9.662;2022-12-18T03:16:01;-1.80;63.60
11647;DHT22;5880;52.342;9.662;2022-12-18T03:18:33;-1.80;63.70
11647;DHT22;5880;52.342;9.662;2022-12-18T03:21:05;-1.80;63.70
11647;DHT22;5880;52.342;9.662;2022-12-18T03:23:47;-1.80;63.70
11647;DHT22;5880;52.342;9.662;2022-12-18T03:26:19;-1.80;63.70
11647;DHT22;5880;52.342;9.662;2022-12-18T03:28:52;-1.80;63.80
11647;DHT22;5880;52.342;9.662;2022-12-18T03:31:23;-1.80;63.80
11647;DHT22;5880;52.342;9.662;2022-12-18T03:33:55;-1.80;63.90
11647;DHT22;5880;52.342;9.662;2022-12-18T03:36:24;-1.80;64.00
11647;DHT22;5880;52.342;9.662;2022-12-18T03:38:50;-1.80;64.00
11647;DHT22;5880;52.342;9.662;2022-12-18T03:41:24;-1.80;64.00
11647;DHT22;5880;52.342;9.662;2022-12-18T03:52:57;-1.80;63.90
11647;DHT22;5880;52.342;9.662;2022-12-18T03:55:32;-1.80;63.80
11647;DHT22;5880;52.342;9.662;2022-12-18T03:58:01;-1.80;63.80
11647;DHT22;5880;52.342;9.662;2022-12-18T04:00:31;-1.80;63.70
11647;DHT22;5880;52.342;9.662;2022-12-18T04:03:00;-1.80;63.70
11647;DHT22;5880;52.342;9.662;2022-12-18T04:05:28;-1.80;63.70
11647;DHT22;5880;52.342;9.662;2022-12-18T04:07:56;-1.80;63.70
11647;DHT22;5880;52.342;9.662;2022-12-18T04:10:23;-1.80;63.80
11647;DHT22;5880;52.342;9.662;2022-12-18T04:12:48;-1.80;63.80
11647;DHT22;5880;52.342;9.662;2022-12-18T04:15:14;-1.80;63.80
11647;DHT22;5880;52.342;9.662;2022-12-18T04:17:48;-1.80;63.80
11647;DHT22;5880;52.342;9.662;2022-12-18T04:20:15;-1.80;63.80
11647;DHT22;5880;52.342;9.662;2022-12-18T04:22:41;-1.80;63.80
11647;DHT22;5880;52.342;9.662;2022-12-18T04:25:07;-1.80;63.80
11647;DHT22;5880;52.342;9.662;2022-12-18T04:27:33;-1.80;63.80
11647;DHT22;5880;52.342;9.662;2022-12-18T04:29:59;-1.80;63.80
11647;DHT22;5880;52.342;9.662;2022-12-18T04:32:25;-1.80;63.80
11647;DHT22;5880;52.342;9.662;2022-12-18T04:34:51;-1.80;63.90
11647;DHT22;5880;52.342;9.662;2022-12-18T04:37:16;-1.80;63.90
11647;DHT22;5880;52.342;9.662;2022-12-18T04:39:42;-1.80;63.90
11647;DHT22;5880;52.342;9.662;2022-12-18T04:42:08;-1.80;63.80
11647;DHT22;5880;52.342;9.662;2022-12-18T04:44:34;-1.80;63.80
11647;DHT22;5880;52.342;9.662;2022-12-18T04:46:59;-1.80;63.80
11647;DHT22;5880;52.342;9.662;2022-12-18T04:49:25;-1.80;63.80
11647;DHT22;5880;52.342;9.662;2022-12-18T04:51:51;-1.80;63.70
11647;DHT22;5880;52.342;9.662;2022-12-18T04:54:20;-1.80;63.70
11647;DHT22;5880;52.342;9.662;2022-12-18T04:56:45;-1.80;63.70
11647;DHT22;5880;52.342;9.662;2022-12-18T04:59:11;-1.80;63.70
11647;DHT22;5880;52.342;9.662;2022-12-18T05:01:37;-1.80;63.90
11647;DHT22;5880;52.342;9.662;2022-12-18T05:04:02;-1.80;63.90
11647;DHT22;5880;52.342;9.662;2022-12-18T05:06:28;-1.80;63.80
11647;DHT22;5880;52.342;9.662;2022-12-18T05:08:54;-1.80;63.80
11647;DHT22;5880;52.342;9.662;2022-12-18T05:11:20;-1.80;63.80
11647;DHT22;5880;52.342;9.662;2022-12-18T05:13:46;-1.80;63.70
11647;DHT22;5880;52.342;9.662;2022-12-18T05:16:12;-1.80;63.70
11647;DHT22;5880;52.342;9.662;2022-12-18T05:18:39;-1.80;63.70
11647;DHT22;5880;52.342;9.662;2022-12-18T05:21:05;-1.80;63.60
11647;DHT22;5880;52.342;9.662;2022-12-18T05:23:34;-1.80;63.60
11647;DHT22;5880;52.342;9.662;2022-12-18T05:26:02;-1.80;63.60
11647;DHT22;5880;52.342;9.662;2022-12-18T05:28:31;-1.80;63.50
11647;DHT22;5880;52.342;9.662;2022-12-18T05:30:59;-1.80;63.60
11647;DHT22;5880;52.342;9.662;2022-12-18T05:33:30;-1.90;63.60
11647;DHT22;5880;52.342;9.662;2022-12-18T05:35:59;-1.90;63.70
11647;DHT22;5880;52.342;9.662;2022-12-18T05:38:26;-1.80;63.70
11647;DHT22;5880;52.342;9.662;2022-12-18T05:40:54;-1.80;63.70
11647;DHT22;5880;52.342;9.662;2022-12-18T05:43:22;-1.80;63.70
11647;DHT22;5880;52.342;9.662;2022-12-18T05:45:49;-1.90;63.60
11647;DHT22;5880;52.342;9.662;2022-12-18T05:48:16;-1.80;63.70
11647;DHT22;5880;52.342;9.662;2022-12-18T05:50:44;-1.80;63.70
11647;DHT22;5880;52.342;9.662;2022-12-18T05:53:13;-1.90;63.60
11647;DHT22;5880;52.342;9.662;2022-12-18T05:55:41;-1.80;63.60
11647;DHT22;5880;52.342;9.662;2022-12-18T05:58:09;-1.90;63.60
11647;DHT22;5880;52.342;9.662;2022-12-18T06:00:38;-1.80;63.60
11647;DHT22;5880;52.342;9.662;2022-12-18T06:03:06;-1.90;63.60
11647;DHT22;5880;52.342;9.662;2022-12-18T06:05:36;-1.80;63.60
11647;DHT22;5880;52.342;9.662;2022-12-18T06:08:04;-1.90;63.60
11647;DHT22;5880;52.342;9.662;2022-12-18T06:10:30;-1.90;63.60
11647;DHT22;5880;52.342;9.662;2022-12-18T06:12:56;-1.90;63.60
11647;DHT22;5880;52.342;9.662;2022-12-18T06:15:22;-1.90;63.60
11647;DHT22;5880;52.342;9.662;2022-12-18T06:17:48;-1.90;63.70
11647;DHT22;5880;52.342;9.662;2022-12-18T06:20:13;-1.90;63.70
11647;DHT22;5880;52.342;9.662;2022-12-18T06:22:39;-1.90;63.70
11647;DHT22;5880;52.342;9.662;2022-12-18T06:25:05;-1.90;63.70
11647;DHT22;5880;52.342;9.662;2022-12-18T06:27:32;-1.90;63.70
11647;DHT22;5880;52.342;9.662;2022-12-18T06:29:59;-2.10;63.60
11647;DHT22;5880;52.342;9.662;2022-12-18T06:32:25;-1.90;63.70
11647;DHT22;5880;52.342;9.662;2022-12-18T06:34:52;-1.90;63.70
11647;DHT22;5880;52.342;9.662;2022-12-18T06:37:18;-1.90;63.70
11647;DHT22;5880;52.342;9.662;2022-12-18T06:39:44;-1.90;63.70
11647;DHT22;5880;52.342;9.662;2022-12-18T06:42:09;-1.90;63.70
11647;DHT22;5880;52.342;9.662;2022-12-18T06:44:35;-1.90;63.70
11647;DHT22;5880;52.342;9.662;2022-12-18T06:47:01;-1.90;63.80
11647;DHT22;5880;52.342;9.662;2022-12-18T06:49:26;-1.90;63.80
11647;DHT22;5880;52.342;9.662;2022-12-18T06:51:52;-1.90;63.90
11647;DHT22;5880;52.342;9.662;2022-12-18T06:54:18;-1.90;63.90
11647;DHT22;5880;52.342;9.662;2022-12-18T06:56:45;-1.90;63.80
11647;DHT22;5880;52.342;9.662;2022-12-18T06:59:13;-1.90;63.70
11647;DHT22;5880;52.342;9.662;2022-12-18T07:01:38;-2.40;63.40
11647;DHT22;5880;52.342;9.662;2022-12-18T07:04:04;-1.80;63.70
11647;DHT22;5880;52.342;9.662;2022-12-18T07:06:30;-1.90;63.70
11647;DHT22;5880;52.342;9.662;2022-12-18T07:08:56;-1.80;63.70
11647;DHT22;5880;52.342;9.662;2022-12-18T07:11:22;-1.80;63.60
11647;DHT22;5880;52.342;9.662;2022-12-18T07:13:48;-1.90;63.70
11647;DHT22;5880;52.342;9.662;2022-12-18T07:16:16;-1.90;63.70
11647;DHT22;5880;52.342;9.662;2022-12-18T07:18:43;-1.90;63.60
11647;DHT22;5880;52.342;9.662;2022-12-18T07:21:12;-1.60;63.80
11647;DHT22;5880;52.342;9.662;2022-12-18T07:23:39;-1.80;63.70
11647;DHT22;5880;52.342;9.662;2022-12-18T07:26:08;-1.90;63.70
11647;DHT22;5880;52.342;9.662;2022-12-18T07:28:37;-1.90;63.70
11647;DHT22;5880;52.342;9.662;2022-12-18T07:31:10;-1.80;63.80
11647;DHT22;5880;52.342;9.662;2022-12-18T07:33:38;-1.80;63.80
11647;DHT22;5880;52.342;9.662;2022-12-18T07:36:06;-1.80;63.80
11647;DHT22;5880;52.342;9.662;2022-12-18T07:38:34;-1.80;63.80
11647;DHT22;5880;52.342;9.662;2022-12-18T07:41:06;-1.80;63.70
11647;DHT22;5880;52.342;9.662;2022-12-18T07:43:37;-1.80;63.70
11647;DHT22;5880;52.342;9.662;2022-12-18T07:46:03;-1.70;63.80
11647;DHT22;5880;52.342;9.662;2022-12-18T07:48:30;-1.80;63.70
11647;DHT22;5880;52.342;9.662;2022-12-18T07:51:04;-1.80;64.20
11647;DHT22;5880;52.342;9.662;2022-12-18T07:53:33;-1.80;63.70
11647;DHT22;5880;52.342;9.662;2022-12-18T07:56:01;-1.70;63.90
11647;DHT22;5880;52.342;9.662;2022-12-18T07:58:30;-1.70;63.90
11647;DHT22;5880;52.342;9.662;2022-12-18T08:01:10;-1.70;63.90
11647;DHT22;5880;52.342;9.662;2022-12-18T08:03:38;-1.70;63.70
11647;DHT22;5880;52.342;9.662;2022-12-18T08:06:06;-1.70;63.80
11647;DHT22;5880;52.342;9.662;2022-12-18T08:08:35;-1.70;63.90
11647;DHT22;5880;52.342;9.662;2022-12-18T08:11:01;-1.70;63.90
11647;DHT22;5880;52.342;9.662;2022-12-18T08:13:28;-1.70;64.00
11647;DHT22;5880;52.342;9.662;2022-12-18T08:16:03;-1.60;64.00
11647;DHT22;5880;52.342;9.662;2022-12-18T08:18:33;-1.60;63.90
11647;DHT22;5880;52.342;9.662;2022-12-18T08:21:10;-1.60;63.90
11647;DHT22;5880;52.342;9.662;2022-12-18T08:23:37;-1.60;63.90
11647;DHT22;5880;52.342;9.662;2022-12-18T08:26:03;-1.50;64.00
11647;DHT22;5880;52.342;9.662;2022-12-18T08:28:29;-1.50;64.10
11647;DHT22;5880;52.342;9.662;2022-12-18T08:30:55;-1.50;64.10
11647;DHT22;5880;52.342;9.662;2022-12-18T08:33:20;-1.50;64.10
11647;DHT22;5880;52.342;9.662;2022-12-18T08:35:46;-1.60;64.10
11647;DHT22;5880;52.342;9.662;2022-12-18T08:38:12;-1.50;64.30
11647;DHT22;5880;52.342;9.662;2022-12-18T08:40:37;-1.50;64.30
11647;DHT22;5880;52.342;9.662;2022-12-18T08:43:03;-1.40;64.40
11647;DHT22;5880;52.342;9.662;2022-12-18T08:45:47;-1.40;64.40
11647;DHT22;5880;52.342;9.662;2022-12-18T08:48:13;-1.40;64.50
11647;DHT22;5880;52.342;9.662;2022-12-18T08:50:39;-1.40;64.60
11647;DHT22;5880;52.342;9.662;2022-12-18T08:53:05;-1.30;64.70
11647;DHT22;5880;52.342;9.662;2022-12-18T08:55:31;-1.30;64.70
11647;DHT22;5880;52.342;9.662;2022-12-18T08:57:57;-1.20;64.70
11647;DHT22;5880;52.342;9.662;2022-12-18T09:00:22;-1.20;64.70
11647;DHT22;5880;52.342;9.662;2022-12-18T09:02:48;-1.10;64.80
11647;DHT22;5880;52.342;9.662;2022-12-18T09:05:13;-1.10;64.90
11647;DHT22;5880;52.342;9.662;2022-12-18T09:07:39;-1.00;65.00
11647;DHT22;5880;52.342;9.662;2022-12-18T09:10:05;-1.00;65.10
11647;DHT22;5880;52.342;9.662;2022-12-18T09:12:31;-0.90;65.20
11647;DHT22;5880;52.342;9.662;2022-12-18T09:14:57;-0.90;65.20
11647;DHT22;5880;52.342;9.662;2022-12-18T09:17:23;-0.80;65.20
11647;DHT22;5880;52.342;9.662;2022-12-18T09:19:48;-0.80;65.20
11647;DHT22;5880;52.342;9.662;2022-12-18T09:22:14;-0.70;65.30
11647;DHT22;5880;52.342;9.662;2022-12-18T09:24:40;-0.70;65.30
11647;DHT22;5880;52.342;9.662;2022-12-18T09:27:06;-0.60;65.30
11647;DHT22;5880;52.342;9.662;2022-12-18T09:29:32;-0.50;65.40
11647;DHT22;5880;52.342;9.662;2022-12-18T09:31:58;-0.70;65.10
11647;DHT22;5880;52.342;9.662;2022-12-18T09:34:23;-0.40;65.30
11647;DHT22;5880;52.342;9.662;2022-12-18T09:36:50;-0.40;65.20
11647;DHT22;5880;52.342;9.662;2022-12-18T09:39:16;-0.30;65.20
11647;DHT22;5880;52.342;9.662;2022-12-18T09:41:52;-0.20;65.20
11647;DHT22;5880;52.342;9.662;2022-12-18T09:44:26;-0.20;65.20
11647;DHT22;5880;52.342;9.662;2022-12-18T09:49:47;-0.10;65.30
11647;DHT22;5880;52.342;9.662;2022-12-18T09:52:30;0.00;65.20
11647;DHT22;5880;52.342;9.662;2022-12-18T09:55:34;0.00;65.30
11647;DHT22;5880;52.342;9.662;2022-12-18T10:01:23;0.20;65.20
11647;DHT22;5880;52.342;9.662;2022-12-18T10:03:50;0.30;65.40
11647;DHT22;5880;52.342;9.662;2022-12-18T10:06:43;0.40;65.50
11647;DHT22;5880;52.342;9.662;2022-12-18T10:09:37;0.40;65.20
11647;DHT22;5880;52.342;9.662;2022-12-18T10:15:21;0.60;65.20
11647;DHT22;5880;52.342;9.662;2022-12-18T10:21:34;0.80;64.80
11647;DHT22;5880;52.342;9.662;2022-12-18T10:24:46;0.90;65.10
11647;DHT22;5880;52.342;9.662;2022-12-18T10:27:24;0.90;64.90
11647;DHT22;5880;52.342;9.662;2022-12-18T10:29:52;1.00;65.00
11647;DHT22;5880;52.342;9.662;2022-12-18T10:32:22;1.00;66.00
11647;DHT22;5880;52.342;9.662;2022-12-18T10:34:56;1.10;65.30
11647;DHT22;5880;52.342;9.662;2022-12-18T10:37:25;1.10;65.10
11647;DHT22;5880;52.342;9.662;2022-12-18T10:40:11;1.20;65.00
11647;DHT22;5880;52.342;9.662;2022-12-18T10:42:39;1.30;64.40
11647;DHT22;5880;52.342;9.662;2022-12-18T10:45:16;1.30;64.80
11647;DHT22;5880;52.342;9.662;2022-12-18T10:47:47;1.40;63.70
11647;DHT22;5880;52.342;9.662;2022-12-18T10:50:26;1.40;64.30
11647;DHT22;5880;52.342;9.662;2022-12-18T10:52:58;1.50;64.90
11647;DHT22;5880;52.342;9.662;2022-12-18T10:55:48;1.60;64.20
11647;DHT22;5880;52.342;9.662;2022-12-18T10:58:29;1.60;64.10
11647;DHT22;5880;52.342;9.662;2022-12-18T11:01:15;1.70;64.10
11647;DHT22;5880;52.342;9.662;2022-12-18T11:03:43;1.70;64.00
11647;DHT22;5880;52.342;9.662;2022-12-18T11:06:18;1.80;64.20
11647;DHT22;5880;52.342;9.662;2022-12-18T11:09:19;1.80;63.50
11647;DHT22;5880;52.342;9.662;2022-12-18T11:11:52;1.90;62.10
11647;DHT22;5880;52.342;9.662;2022-12-18T11:16:55;2.00;63.60
11647;DHT22;5880;52.342;9.662;2022-12-18T11:19:37;2.00;64.30
11647;DHT22;5880;52.342;9.662;2022-12-18T11:22:24;2.10;63.50
11647;DHT22;5880;52.342;9.662;2022-12-18T11:27:38;2.10;62.70
11647;DHT22;5880;52.342;9.662;2022-12-18T11:30:27;2.10;63.40
11647;DHT22;5880;52.342;9.662;2022-12-18T11:35:49;2.20;63.20
11647;DHT22;5880;52.342;9.662;2022-12-18T11:38:22;2.20;62.80
11647;DHT22;5880;52.342;9.662;2022-12-18T11:41:09;2.20;63.40
11647;DHT22;5880;52.342;9.662;2022-12-18T11:43:58;2.30;63.30
11647;DHT22;5880;52.342;9.662;2022-12-18T11:46:36;2.30;62.80
11647;DHT22;5880;52.342;9.662;2022-12-18T11:49:25;2.30;62.90
11647;DHT22;5880;52.342;9.662;2022-12-18T11:52:04;2.30;62.10
11647;DHT22;5880;52.342;9.662;2022-12-18T11:54:34;2.30;62.80
11647;DHT22;5880;52.342;9.662;2022-12-18T12:05:57;2.40;62.00
11647;DHT22;5880;52.342;9.662;2022-12-18T12:14:35;2.30;62.50
11647;DHT22;5880;52.342;9.662;2022-12-18T12:26:07;2.30;62.50
11647;DHT22;5880;52.342;9.662;2022-12-18T12:29:03;2.20;62.50
11647;DHT22;5880;52.342;9.662;2022-12-18T12:34:47;2.30;62.80
11647;DHT22;5880;52.342;9.662;2022-12-18T12:39:48;2.20;63.20
11647;DHT22;5880;52.342;9.662;2022-12-18T12:42:33;2.30;63.20
11647;DHT22;5880;52.342;9.662;2022-12-18T12:45:38;2.30;62.40
11647;DHT22;5880;52.342;9.662;2022-12-18T12:48:18;2.30;62.90
11647;DHT22;5880;52.342;9.662;2022-12-18T12:50:57;2.30;61.60
11647;DHT22;5880;52.342;9.662;2022-12-18T12:53:31;2.40;61.90
11647;DHT22;5880;52.342;9.662;2022-12-18T12:56:02;2.40;61.30
11647;DHT22;5880;52.342;9.662;2022-12-18T12:58:57;2.40;62.20
11647;DHT22;5880;52.342;9.662;2022-12-18T13:01:38;2.50;61.70
11647;DHT22;5880;52.342;9.662;2022-12-18T13:04:25;2.50;61.80
11647;DHT22;5880;52.342;9.662;2022-12-18T13:10:34;2.60;61.60
11647;DHT22;5880;52.342;9.662;2022-12-18T13:15:39;2.60;61.40
11647;DHT22;5880;52.342;9.662;2022-12-18T13:20:42;2.70;61.70
11647;DHT22;5880;52.342;9.662;2022-12-18T13:25:49;2.70;61.30
11647;DHT22;5880;52.342;9.662;2022-12-18T13:31:10;2.70;60.30
11647;DHT22;5880;52.342;9.662;2022-12-18T13:33:46;2.70;61.90
11647;DHT22;5880;52.342;9.662;2022-12-18T13:36:27;2.70;61.00
11647;DHT22;5880;52.342;9.662;2022-12-18T13:41:42;2.70;60.30
11647;DHT22;5880;52.342;9.662;2022-12-18T13:46:59;2.70;60.50
11647;DHT22;5880;52.342;9.662;2022-12-18T13:49:39;2.60;60.00
11647;DHT22;5880;52.342;9.662;2022-12-18T13:52:22;2.70;59.90
11647;DHT22;5880;52.342;9.662;2022-12-18T13:54:55;2.60;59.20
11647;DHT22;5880;52.342;9.662;2022-12-18T13:57:37;2.60;60.50
11647;DHT22;5880;52.342;9.662;2022-12-18T14:02:48;2.60;59.60
11647;DHT22;5880;52.342;9.662;2022-12-18T14:05:36;2.60;60.30
11647;DHT22;5880;52.342;9.662;2022-12-18T14:08:10;2.50;59.80
11647;DHT22;5880;52.342;9.662;2022-12-18T14:10:43;2.50;60.50
11647;DHT22;5880;52.342;9.662;2022-12-18T14:13:16;2.50;60.60
11647;DHT22;5880;52.342;9.662;2022-12-18T14:15:56;2.40;60.70
11647;DHT22;5880;52.342;9.662;2022-12-18T14:21:22;2.40;60.30
11647;DHT22;5880;52.342;9.662;2022-12-18T14:24:14;2.40;60.30
11647;DHT22;5880;52.342;9.662;2022-12-18T14:26:42;2.30;59.30
11647;DHT22;5880;52.342;9.662;2022-12-18T14:29:26;2.20;60.00
11647;DHT22;5880;52.342;9.662;2022-12-18T14:32:18;2.20;59.10
11647;DHT22;5880;52.342;9.662;2022-12-18T14:34:53;2.20;59.70
11647;DHT22;5880;52.342;9.662;2022-12-18T14:37:22;2.10;60.40
11647;DHT22;5880;52.342;9.662;2022-12-18T14:42:18;2.00;59.40
11647;DHT22;5880;52.342;9.662;2022-12-18T14:44:44;2.00;60.20
11647;DHT22;5880;52.342;9.662;2022-12-18T14:47:15;2.00;59.80
11647;DHT22;5880;52.342;9.662;2022-12-18T14:49:42;1.90;59.80
11647;DHT22;5880;52.342;9.662;2022-12-18T14:52:24;1.90;59.80
11647;DHT22;5880;52.342;9.662;2022-12-18T14:54:54;1.80;58.90
11647;DHT22;5880;52.342;9.662;2022-12-18T14:57:25;1.80;60.00
11647;DHT22;5880;52.342;9.662;2022-12-18T15:00:15;1.80;59.80
11647;DHT22;5880;52.342;9.662;2022-12-18T15:02:57;1.80;59.30
11647;DHT22;5880;52.342;9.662;2022-12-18T15:05:30;1.70;60.00
11647;DHT22;5880;52.342;9.662;2022-12-18T15:07:59;1.70;60.50
11647;DHT22;5880;52.342;9.662;2022-12-18T15:10:33;1.60;60.40
11647;DHT22;5880;52.342;9.662;2022-12-18T15:18:15;1.60;60.00
11647;DHT22;5880;52.342;9.662;2022-12-18T15:23:47;1.50;60.50
11647;DHT22;5880;52.342;9.662;2022-12-18T15:26:16;1.50;59.40
11647;DHT22;5880;52.342;9.662;2022-12-18T15:28:46;1.40;60.10
11647;DHT22;5880;52.342;9.662;2022-12-18T15:33:45;1.40;60.30
11647;DHT22;5880;52.342;9.662;2022-12-18T15:36:26;1.40;60.30
11647;DHT22;5880;52.342;9.662;2022-12-18T15:38:53;1.40;60.50
11647;DHT22;5880;52.342;9.662;2022-12-18T15:41:22;1.40;60.60
11647;DHT22;5880;52.342;9.662;2022-12-18T15:43:49;1.40;60.40
11647;DHT22;5880;52.342;9.662;2022-12-18T15:46:19;1.90;60.80
11647;DHT22;5880;52.342;9.662;2022-12-18T15:48:54;1.40;60.20
11647;DHT22;5880;52.342;9.662;2022-12-18T15:51:24;1.40;60.40
11647;DHT22;5880;52.342;9.662;2022-12-18T15:53:55;1.40;60.00
11647;DHT22;5880;52.342;9.662;2022-12-18T15:56:23;1.40;60.30
11647;DHT22;5880;52.342;9.662;2022-12-18T15:59:13;1.30;60.30
11647;DHT22;5880;52.342;9.662;2022-12-18T16:01:43;1.30;60.20
11647;DHT22;5880;52.342;9.662;2022-12-18T16:04:16;1.40;60.60
11647;DHT22;5880;52.342;9.662;2022-12-18T16:06:45;1.30;60.70
11647;DHT22;5880;52.342;9.662;2022-12-18T16:09:11;1.30;60.80
11647;DHT22;5880;52.342;9.662;2022-12-18T16:11:37;1.30;60.80
11647;DHT22;5880;52.342;9.662;2022-12-18T16:14:25;1.30;60.80
11647;DHT22;5880;52.342;9.662;2022-12-18T16:16:54;1.30;60.70
11647;DHT22;5880;52.342;9.662;2022-12-18T16:19:22;1.30;60.70
11647;DHT22;5880;52.342;9.662;2022-12-18T16:21:49;1.30;60.80
11647;DHT22;5880;52.342;9.662;2022-12-18T16:24:25;1.30;61.00
11647;DHT22;5880;52.342;9.662;2022-12-18T16:26:53;1.30;60.70
11647;DHT22;5880;52.342;9.662;2022-12-18T16:29:21;1.30;61.10
11647;DHT22;5880;52.342;9.662;2022-12-18T16:31:50;1.20;61.00
11647;DHT22;5880;52.342;9.662;2022-12-18T16:34:27;1.20;61.20
11647;DHT22;5880;52.342;9.662;2022-12-18T16:37:00;1.20;60.80
11647;DHT22;5880;52.342;9.662;2022-12-18T16:39:27;1.20;60.70
11647;DHT22;5880;52.342;9.662;2022-12-18T16:41:53;1.20;60.60
11647;DHT22;5880;52.342;9.662;2022-12-18T16:44:19;1.20;60.70
11647;DHT22;5880;52.342;9.662;2022-12-18T16:46:46;1.10;60.60
11647;DHT22;5880;52.342;9.662;2022-12-18T16:49:16;1.20;61.00
11647;DHT22;5880;52.342;9.662;2022-12-18T16:51:43;1.20;61.10
11647;DHT22;5880;52.342;9.662;2022-12-18T16:54:11;1.10;61.20
11647;DHT22;5880;52.342;9.662;2022-12-18T16:56:37;1.20;61.20
11647;DHT22;5880;52.342;9.662;2022-12-18T16:59:03;1.10;61.40
11647;DHT22;5880;52.342;9.662;2022-12-18T17:01:31;1.10;61.60
11647;DHT22;5880;52.342;9.662;2022-12-18T17:04:02;1.20;61.60
11647;DHT22;5880;52.342;9.662;2022-12-18T17:06:33;1.10;61.50
11647;DHT22;5880;52.342;9.662;2022-12-18T17:09:06;1.20;61.40
11647;DHT22;5880;52.342;9.662;2022-12-18T17:11:34;1.20;61.40
11647;DHT22;5880;52.342;9.662;2022-12-18T17:14:08;1.20;61.50
11647;DHT22;5880;52.342;9.662;2022-12-18T17:16:37;1.20;61.60
11647;DHT22;5880;52.342;9.662;2022-12-18T17:19:02;1.20;61.90
11647;DHT22;5880;52.342;9.662;2022-12-18T17:21:29;1.20;61.90
11647;DHT22;5880;52.342;9.662;2022-12-18T17:23:54;1.20;61.90
11647;DHT22;5880;52.342;9.662;2022-12-18T17:26:20;1.80;62.20
11647;DHT22;5880;52.342;9.662;2022-12-18T17:28:46;1.30;62.00
11647;DHT22;5880;52.342;9.662;2022-12-18T17:31:16;1.30;62.00
11647;DHT22;5880;52.342;9.662;2022-12-18T17:33:43;1.30;61.70
11647;DHT22;5880;52.342;9.662;2022-12-18T17:36:10;1.30;61.80
11647;DHT22;5880;52.342;9.662;2022-12-18T17:38:37;1.30;61.70
11647;DHT22;5880;52.342;9.662;2022-12-18T17:41:05;1.30;61.80
11647;DHT22;5880;52.342;9.662;2022-12-18T17:43:33;1.30;61.70
11647;DHT22;5880;52.342;9.662;2022-12-18T17:46:11;1.40;61.70
11647;DHT22;5880;52.342;9.662;2022-12-18T17:48:39;1.40;61.60
11647;DHT22;5880;52.342;9.662;2022-12-18T17:51:09;1.40;61.70
11647;DHT22;5880;52.342;9.662;2022-12-18T17:53:36;1.40;61.60
11647;DHT22;5880;52.342;9.662;2022-12-18T17:56:06;1.40;61.60
11647;DHT22;5880;52.342;9.662;2022-12-18T17:58:37;1.40;61.60
11647;DHT22;5880;52.342;9.662;2022-12-18T18:01:04;1.50;61.70
11647;DHT22;5880;52.342;9.662;2022-12-18T18:03:31;1.50;61.60
11647;DHT22;5880;52.342;9.662;2022-12-18T18:05:59;1.50;61.40